createdAt,value
2023-04-03T00:01:32.379Z,91.50
2023-04-03T00:04:03.277Z,91.52
2023-04-03T00:06:32.100Z,91.53
2023-04-03T00:09:00.584Z,91.45
2023-04-03T00:11:29.029Z,91.52
2023-04-03T00:13:57.250Z,91.48
2023-04-03T00:16:25.199Z,91.46
2023-04-03T00:18:53.147Z,91.48
2023-04-03T00:21:21.146Z,91.49
2023-04-03T00:23:49.221Z,91.41
2023-04-03T00:26:17.251Z,91.41
2023-04-03T00:28:45.465Z,91.38
2023-04-03T00:31:17.295Z,91.33
2023-04-03T00:33:45.412Z,91.27
2023-04-03T00:36:14.141Z,91.34
2023-04-03T00:38:42.642Z,91.34
2023-04-03T00:41:10.776Z,91.44
2023-04-03T00:43:38.885Z,91.39
2023-04-03T00:46:06.984Z,91.30
2023-04-03T00:48:43.870Z,91.30
2023-04-03T00:51:23.409Z,91.30
2023-04-03T00:54:11.616Z,91.32
2023-04-03T00:56:59.177Z,91.41
2023-04-03T00:59:31.582Z,91.45
2023-04-03T01:02:00.898Z,91.50
2023-04-03T01:04:33.931Z,91.50
2023-04-03T01:07:07.260Z,91.53
2023-04-03T01:09:36.517Z,91.57
2023-04-03T01:12:25.244Z,91.52
2023-04-03T01:14:57.441Z,91.48
2023-04-03T01:17:45.390Z,91.50
2023-04-03T01:20:37.408Z,91.53
2023-04-03T01:23:25.250Z,91.51
2023-04-03T01:25:57.050Z,91.58
2023-04-03T01:28:33.030Z,91.59
2023-04-03T01:31:24.989Z,91.52
2023-04-03T01:33:53.858Z,91.60
2023-04-03T01:36:29.954Z,91.69
2023-04-03T01:39:00.362Z,91.71
2023-04-03T01:41:29.518Z,91.74
2023-04-03T01:43:59.210Z,91.73
2023-04-03T01:46:27.328Z,91.72
2023-04-03T01:48:55.256Z,91.75
2023-04-03T01:51:23.537Z,91.76
2023-04-03T01:53:52.154Z,91.76
2023-04-03T01:56:20.824Z,91.75
2023-04-03T01:58:49.079Z,91.80
2023-04-03T02:01:18.139Z,91.77
2023-04-03T02:03:46.015Z,91.81
2023-04-03T02:06:13.972Z,91.80
2023-04-03T02:08:42.729Z,91.82
2023-04-03T02:11:13.832Z,91.80
2023-04-03T02:13:41.950Z,91.84
2023-04-03T02:16:11.672Z,91.82
2023-04-03T02:18:40.613Z,91.81
2023-04-03T02:21:09.500Z,91.86
2023-04-03T02:23:37.565Z,91.80
2023-04-03T02:26:09.831Z,91.78
2023-04-03T02:28:37.963Z,91.87
2023-04-03T02:31:09.679Z,91.86
2023-04-03T02:33:41.378Z,91.85
2023-04-03T02:36:10.586Z,91.82
2023-04-03T02:38:39.671Z,91.81
2023-04-03T02:41:10.818Z,91.79
2023-04-03T02:43:39.749Z,91.72
2023-04-03T02:46:08.888Z,91.86
2023-04-03T02:48:38.236Z,91.89
2023-04-03T02:51:06.339Z,91.96
2023-04-03T02:53:34.245Z,92.00
2023-04-03T02:56:04.029Z,91.96
2023-04-03T02:58:31.994Z,91.96
2023-04-03T03:01:01.006Z,91.97
2023-04-03T03:03:29.233Z,91.92
2023-04-03T03:06:13.940Z,92.00
2023-04-03T03:08:42.968Z,92.02
2023-04-03T03:11:11.510Z,92.05
2023-04-03T03:13:39.948Z,92.07
2023-04-03T03:16:08.873Z,92.05
2023-04-03T03:18:37.581Z,92.06
2023-04-03T03:21:05.776Z,92.05
2023-04-03T03:23:34.344Z,91.96
2023-04-03T03:26:06.368Z,92.00
2023-04-03T03:28:36.851Z,92.00
2023-04-03T03:31:05.994Z,92.08
2023-04-03T03:33:34.438Z,92.12
2023-04-03T03:36:02.350Z,92.18
2023-04-03T03:38:30.585Z,92.21
2023-04-03T03:41:00.535Z,92.21
2023-04-03T03:43:28.639Z,92.22
2023-04-03T03:45:56.405Z,92.24
2023-04-03T03:48:24.874Z,92.20
2023-04-03T03:50:53.031Z,92.16
2023-04-03T03:53:22.783Z,92.25
2023-04-03T03:55:52.036Z,92.21
2023-04-03T03:58:21.402Z,92.14
2023-04-03T04:00:50.134Z,92.30
2023-04-03T04:03:18.892Z,92.34
2023-04-03T04:05:48.587Z,92.45
2023-04-03T04:08:16.928Z,92.52
2023-04-03T04:10:45.697Z,92.54
2023-04-03T04:13:14.979Z,92.55
2023-04-03T04:15:44.653Z,92.59
2023-04-03T04:18:12.662Z,92.54
2023-04-03T04:20:42.706Z,92.54
2023-04-03T04:23:11.026Z,92.53
2023-04-03T04:25:39.457Z,92.54
2023-04-03T04:28:07.357Z,92.52
2023-04-03T04:30:35.238Z,92.43
2023-04-03T04:33:04.438Z,92.39
2023-04-03T04:35:35.080Z,92.40
2023-04-03T04:38:03.732Z,92.52
2023-04-03T04:40:31.556Z,92.66
2023-04-03T04:43:00.312Z,92.75
2023-04-03T04:45:28.357Z,92.78
2023-04-03T04:47:57.621Z,92.83
2023-04-03T04:50:25.792Z,92.78
2023-04-03T04:52:54.375Z,92.72
2023-04-03T04:55:22.629Z,92.79
2023-04-03T04:57:51.351Z,92.86
2023-04-03T05:00:20.063Z,92.78
2023-04-03T05:02:48.250Z,92.82
2023-04-03T05:05:16.290Z,92.69
2023-04-03T05:07:44.251Z,92.73
2023-04-03T05:10:12.192Z,92.57
2023-04-03T05:12:41.302Z,92.39
2023-04-03T05:15:10.329Z,92.55
2023-04-03T05:17:38.907Z,92.53
2023-04-03T05:20:09.240Z,92.50
2023-04-03T05:22:38.324Z,92.43
2023-04-03T05:25:08.664Z,92.45
2023-04-03T05:27:36.840Z,92.46
2023-04-03T05:30:06.036Z,92.47
2023-04-03T05:32:34.138Z,92.42
2023-04-03T05:35:07.906Z,92.49
2023-04-03T05:37:37.007Z,92.67
2023-04-03T05:40:07.504Z,92.61
2023-04-03T05:42:36.242Z,92.59
2023-04-03T05:45:05.836Z,92.52
2023-04-03T05:47:33.752Z,92.42
2023-04-03T05:50:02.118Z,92.45
2023-04-03T05:52:37.147Z,92.36
2023-04-03T05:55:06.238Z,92.29
2023-04-03T05:57:35.514Z,92.31
2023-04-03T06:00:07.320Z,92.11
2023-04-03T06:02:37.191Z,91.72
2023-04-03T06:05:08.448Z,91.60
2023-04-03T06:07:36.978Z,91.48
2023-04-03T06:10:07.601Z,91.56
2023-04-03T06:12:35.708Z,91.73
2023-04-03T06:15:04.354Z,91.74
2023-04-03T06:17:32.512Z,91.93
2023-04-03T06:20:00.598Z,91.85
2023-04-03T06:22:30.456Z,91.87
2023-04-03T06:24:58.680Z,91.85
2023-04-03T06:27:26.627Z,92.01
2023-04-03T06:29:55.237Z,92.15
2023-04-03T06:32:23.101Z,92.31
2023-04-03T06:34:51.297Z,92.61
2023-04-03T06:37:22.901Z,92.91
2023-04-03T06:39:50.722Z,93.27
2023-04-03T06:42:19.027Z,93.21
2023-04-03T06:44:48.879Z,93.51
2023-04-03T06:47:17.780Z,93.75
2023-04-03T06:49:46.130Z,93.71
2023-04-03T06:52:13.910Z,93.62
2023-04-03T06:54:41.993Z,93.56
2023-04-03T06:57:09.912Z,93.59
2023-04-03T06:59:38.318Z,93.57
2023-04-03T07:02:07.097Z,93.51
2023-04-03T07:04:35.308Z,93.49
2023-04-03T07:07:03.326Z,93.42
2023-04-03T07:09:31.392Z,93.61
2023-04-03T07:11:59.565Z,93.63
2023-04-03T07:14:27.822Z,93.60
2023-04-03T07:16:55.727Z,93.49
2023-04-03T07:19:26.969Z,93.27
2023-04-03T07:22:04.302Z,93.28
2023-04-03T07:24:34.244Z,93.29
2023-04-03T07:27:02.990Z,93.28
2023-04-03T07:29:31.186Z,93.42
2023-04-03T07:32:01.068Z,93.35
2023-04-03T07:34:29.700Z,93.31
2023-04-03T07:36:58.381Z,93.26
2023-04-03T07:39:30.488Z,93.32
2023-04-03T07:44:53.155Z,93.25
2023-04-03T07:47:26.744Z,93.12
2023-04-03T07:50:02.268Z,93.09
2023-04-03T07:52:32.002Z,93.07
2023-04-03T07:55:01.308Z,93.33
2023-04-03T07:57:36.138Z,93.08
2023-04-03T08:04:37.184Z,92.59
2023-04-03T08:07:11.868Z,92.49
2023-04-03T08:09:46.925Z,92.37
2023-04-03T08:12:52.374Z,92.36
2023-04-03T08:15:23.704Z,92.16
2023-04-03T08:17:52.410Z,91.91
2023-04-03T08:20:20.820Z,92.05
2023-04-03T08:22:48.566Z,92.12
2023-04-03T08:25:17.985Z,92.26
2023-04-03T08:27:46.109Z,92.04
2023-04-03T08:30:14.759Z,92.25
2023-04-03T08:32:43.665Z,92.05
2023-04-03T08:35:12.252Z,92.19
2023-04-03T08:37:40.862Z,91.83
2023-04-03T08:40:16.643Z,91.68
2023-04-03T08:43:08.333Z,91.98
2023-04-03T08:45:56.808Z,91.45
2023-04-03T08:48:36.353Z,91.28
2023-04-03T08:51:17.972Z,91.45
2023-04-03T08:53:51.590Z,91.42
2023-04-03T08:56:19.980Z,90.86
2023-04-03T08:58:56.933Z,90.59
2023-04-03T09:01:33.100Z,89.93
2023-04-03T09:04:03.280Z,89.51
2023-04-03T09:06:33.960Z,89.20
2023-04-03T09:09:41.689Z,89.08
2023-04-03T09:12:30.591Z,88.66
2023-04-03T09:15:13.204Z,88.12
2023-04-03T09:18:18.552Z,87.84
2023-04-03T09:21:27.200Z,87.78
2023-04-03T09:24:02.355Z,87.79
2023-04-03T09:26:33.823Z,87.58
2023-04-03T09:29:10.611Z,86.93
2023-04-03T09:31:43.791Z,87.44
2023-04-03T09:34:26.763Z,86.88
2023-04-03T09:37:07.614Z,86.76
2023-04-03T09:39:56.449Z,86.72
2023-04-03T09:42:27.043Z,86.65
2023-04-03T09:45:12.716Z,86.98
2023-04-03T09:47:42.380Z,86.86
2023-04-03T09:50:20.216Z,86.75
2023-04-03T09:52:53.075Z,86.74
2023-04-03T09:55:26.172Z,86.72
2023-04-03T09:57:58.085Z,86.21
2023-04-03T10:00:39.107Z,86.08
2023-04-03T10:03:34.645Z,85.66
2023-04-03T10:06:04.476Z,85.70
2023-04-03T10:08:36.085Z,85.72
2023-04-03T10:11:14.742Z,85.49
2023-04-03T10:14:01.636Z,85.24
2023-04-03T10:16:39.917Z,85.21
2023-04-03T10:19:28.976Z,84.18
2023-04-03T10:22:15.075Z,83.85
2023-04-03T10:24:48.152Z,83.47
2023-04-03T10:27:27.397Z,82.86
2023-04-03T10:30:18.833Z,82.46
2023-04-03T10:33:20.383Z,82.29
2023-04-03T10:36:15.671Z,81.30
2023-04-03T10:39:13.425Z,81.12
2023-04-03T10:42:17.936Z,79.14
2023-04-03T10:44:54.561Z,79.26
2023-04-03T10:48:03.824Z,78.92
2023-04-03T10:51:03.635Z,77.02
2023-04-03T10:53:42.736Z,78.49
2023-04-03T10:56:33.522Z,77.23
2023-04-03T10:59:27.563Z,77.24
2023-04-03T11:02:03.683Z,77.20
2023-04-03T11:04:36.430Z,77.75
2023-04-03T11:07:23.828Z,76.52
2023-04-03T11:09:56.295Z,76.18
2023-04-03T11:12:50.202Z,76.74
2023-04-03T11:15:21.764Z,75.96
2023-04-03T11:18:00.189Z,76.25
2023-04-03T11:20:34.365Z,75.55
2023-04-03T11:23:30.251Z,75.76
2023-04-03T11:26:02.292Z,75.51
2023-04-03T11:28:30.986Z,75.26
2023-04-03T11:31:07.567Z,73.07
2023-04-03T11:34:06.898Z,74.96
2023-04-03T11:36:45.373Z,75.27
2023-04-03T11:39:36.345Z,74.39
2023-04-03T11:42:28.478Z,74.37
2023-04-03T11:45:28.005Z,74.98
2023-04-03T11:48:25.116Z,75.02
2023-04-03T11:50:51.706Z,74.62
2023-04-03T11:53:28.039Z,74.02
2023-04-03T11:56:02.669Z,72.50
2023-04-03T11:58:39.513Z,71.65
2023-04-03T12:01:12.625Z,71.15
2023-04-03T12:03:52.362Z,70.54
2023-04-03T12:06:34.936Z,69.76
2023-04-03T12:09:03.647Z,70.73
2023-04-03T12:11:33.196Z,71.28
2023-04-03T12:14:05.452Z,70.76
2023-04-03T12:16:44.544Z,70.51
2023-04-03T12:19:26.525Z,71.03
2023-04-03T12:22:01.193Z,69.31
2023-04-03T12:24:32.795Z,70.03
2023-04-03T12:27:12.158Z,70.38
2023-04-03T12:30:01.890Z,70.42
2023-04-03T12:33:11.932Z,70.03
2023-04-03T12:35:38.431Z,70.13
2023-04-03T12:38:25.830Z,69.90
2023-04-03T12:41:21.833Z,70.87
2023-04-03T12:44:19.254Z,71.52
2023-04-03T12:46:51.716Z,71.14
2023-04-03T12:49:31.864Z,70.52
2023-04-03T12:52:00.382Z,70.60
2023-04-03T12:54:38.309Z,71.29
2023-04-03T12:57:23.646Z,70.20
2023-04-03T12:59:52.077Z,68.79
2023-04-03T13:02:34.322Z,68.18
2023-04-03T13:05:13.761Z,67.89
2023-04-03T13:07:44.043Z,68.45
2023-04-03T13:10:16.527Z,67.46
2023-04-03T13:12:57.494Z,68.63
2023-04-03T13:15:33.419Z,68.34
2023-04-03T13:18:11.133Z,67.15
2023-04-03T13:20:42.491Z,65.96
2023-04-03T13:23:13.767Z,64.80
2023-04-03T13:25:45.034Z,65.31
2023-04-03T13:28:17.940Z,65.82
2023-04-03T13:31:03.442Z,65.73
2023-04-03T13:33:37.212Z,66.08
2023-04-03T13:36:13.303Z,64.98
2023-04-03T13:38:41.329Z,65.74
2023-04-03T13:41:39.915Z,64.47
2023-04-03T13:44:25.701Z,63.87
2023-04-03T13:47:01.957Z,63.68
2023-04-03T13:49:38.920Z,63.23
2023-04-03T13:52:36.288Z,61.80
2023-04-03T13:55:30.998Z,62.35
2023-04-03T13:58:04.027Z,61.42
2023-04-03T14:00:39.780Z,63.00
2023-04-03T14:03:34.484Z,62.39
2023-04-03T14:06:02.359Z,62.19
2023-04-03T14:08:42.145Z,62.15
2023-04-03T14:11:00.919Z,61.64
2023-04-03T14:13:32.484Z,61.33
2023-04-03T14:16:15.730Z,60.70
2023-04-03T14:18:32.346Z,60.99
2023-04-03T14:21:00.398Z,62.21
2023-04-03T14:23:28.116Z,60.99
2023-04-03T14:25:56.476Z,61.04
2023-04-03T14:28:24.393Z,60.56
2023-04-03T14:30:52.438Z,61.48
2023-04-03T14:33:25.959Z,62.22
2023-04-03T14:35:55.698Z,60.85
2023-04-03T14:38:31.126Z,61.54
2023-04-03T14:41:09.765Z,60.91
2023-04-03T14:43:29.500Z,60.18
2023-04-03T14:45:57.542Z,61.62
2023-04-03T14:48:27.999Z,62.02
2023-04-03T14:51:05.342Z,61.63
2023-04-03T14:53:37.812Z,61.51
2023-04-03T14:55:56.405Z,60.78
2023-04-03T14:58:24.150Z,61.45
2023-04-03T15:00:51.886Z,61.83
2023-04-03T15:03:23.906Z,61.67
2023-04-03T15:05:52.022Z,62.49
2023-04-03T15:08:26.922Z,61.99
2023-04-03T15:10:56.147Z,62.48
2023-04-03T15:13:26.330Z,63.28
2023-04-03T15:15:54.424Z,63.25
2023-04-03T15:18:30.481Z,63.58
2023-04-03T15:20:58.207Z,64.31
2023-04-03T15:23:27.026Z,64.95
2023-04-03T15:25:55.865Z,65.38
2023-04-03T15:28:39.153Z,65.45
2023-04-03T15:31:07.644Z,65.57
2023-04-03T15:33:36.390Z,66.11
2023-04-03T15:36:07.595Z,66.45
2023-04-03T15:38:39.140Z,66.85
2023-04-03T15:41:07.355Z,67.12
2023-04-03T15:43:37.042Z,66.90
2023-04-03T15:46:04.871Z,66.75
2023-04-03T15:48:34.845Z,67.41
2023-04-03T15:51:07.262Z,67.76
2023-04-03T15:57:11.238Z,68.53
2023-04-03T15:59:57.314Z,69.03
2023-04-03T16:02:27.714Z,69.54
2023-04-03T16:04:56.540Z,69.94
2023-04-03T16:07:24.405Z,70.38
2023-04-03T16:09:53.026Z,70.52
2023-04-03T16:12:20.960Z,70.93
2023-04-03T16:14:50.774Z,71.12
2023-04-03T16:17:18.989Z,71.33
2023-04-03T16:19:47.335Z,71.45
2023-04-03T16:22:15.435Z,71.92
2023-04-03T16:24:43.148Z,72.07
2023-04-03T16:27:10.925Z,72.29
2023-04-03T16:29:38.668Z,72.56
2023-04-03T16:32:06.533Z,72.95
2023-04-03T16:34:34.680Z,72.93
2023-04-03T16:37:02.810Z,73.00
2023-04-03T16:39:30.693Z,73.37
2023-04-03T16:41:58.828Z,73.37
2023-04-03T16:44:26.869Z,73.67
2023-04-03T16:46:55.050Z,74.41
2023-04-03T16:49:22.919Z,74.42
2023-04-03T16:51:50.695Z,74.25
2023-04-03T16:54:18.600Z,74.32
2023-04-03T16:56:47.030Z,74.35
2023-04-03T16:59:15.152Z,74.43
2023-04-03T17:01:43.056Z,74.58
2023-04-03T17:04:10.897Z,74.75
2023-04-03T17:06:38.958Z,74.78
2023-04-03T17:09:07.954Z,74.86
2023-04-03T17:11:38.766Z,75.07
2023-04-03T17:14:06.754Z,75.11
2023-04-03T17:16:37.238Z,75.22
2023-04-03T17:19:05.543Z,75.32
2023-04-03T17:21:34.541Z,75.46
2023-04-03T17:24:08.292Z,75.43
2023-04-03T17:26:37.091Z,75.51
2023-04-03T17:29:05.204Z,75.63
2023-04-03T17:31:35.830Z,75.70
2023-04-03T17:34:04.519Z,75.96
2023-04-03T17:36:35.114Z,75.90
2023-04-03T17:39:03.602Z,76.06
2023-04-03T17:41:32.048Z,76.11
2023-04-03T17:44:00.278Z,76.25
2023-04-03T17:46:29.686Z,76.29
2023-04-03T17:49:00.005Z,76.51
2023-04-03T17:51:28.370Z,76.48
2023-04-03T17:53:56.424Z,76.82
2023-04-03T17:56:29.220Z,77.06
2023-04-03T17:58:58.173Z,77.22
2023-04-03T18:01:34.160Z,77.39
2023-04-03T18:04:05.310Z,77.40
2023-04-03T18:06:43.868Z,77.93
2023-04-03T18:09:19.564Z,78.15
2023-04-03T18:11:49.269Z,78.16
2023-04-03T18:14:21.480Z,78.25
2023-04-03T18:16:49.939Z,78.67
2023-04-03T18:19:23.530Z,78.90
2023-04-03T18:21:48.346Z,79.07
2023-04-03T18:24:19.151Z,79.08
2023-04-03T18:26:52.041Z,79.11
2023-04-03T18:29:21.143Z,79.39
2023-04-03T18:31:55.956Z,79.09
2023-04-03T18:34:24.821Z,79.42
2023-04-03T18:36:53.644Z,79.31
2023-04-03T18:39:23.360Z,79.36
2023-04-03T18:41:54.073Z,79.65
2023-04-03T18:44:25.463Z,79.92
2023-04-03T18:46:56.119Z,79.93
2023-04-03T18:49:24.284Z,79.93
2023-04-03T18:51:54.364Z,80.13
2023-04-03T18:54:22.687Z,80.09
2023-04-03T18:56:50.778Z,80.24
2023-04-03T18:59:25.483Z,80.09
2023-04-03T19:01:55.307Z,80.00
2023-04-03T19:04:23.892Z,80.10
2023-04-03T19:06:52.859Z,80.01
2023-04-03T19:09:21.374Z,80.07
2023-04-03T19:11:49.176Z,80.28
2023-04-03T19:14:17.314Z,80.30
2023-04-03T19:16:45.900Z,80.24
2023-04-03T19:19:15.963Z,80.26
2023-04-03T19:21:44.074Z,80.43
2023-04-03T19:24:14.061Z,80.46
2023-04-03T19:26:42.703Z,80.69
2023-04-03T19:29:11.251Z,80.75
2023-04-03T19:31:39.649Z,80.78
2023-04-03T19:34:07.973Z,80.87
2023-04-03T19:36:38.940Z,80.82
2023-04-03T19:39:07.192Z,80.90
2023-04-03T19:41:37.127Z,80.77
2023-04-03T19:44:07.020Z,80.84
2023-04-03T19:46:36.348Z,80.76
2023-04-03T19:49:04.613Z,80.75
2023-04-03T19:51:32.626Z,80.77
2023-04-03T19:54:00.410Z,80.63
2023-04-03T19:56:28.262Z,80.57
2023-04-03T19:58:56.404Z,80.49
2023-04-03T20:01:27.212Z,80.47
2023-04-03T20:03:56.025Z,80.44
2023-04-03T20:06:24.097Z,80.32
2023-04-03T20:08:53.136Z,80.22
2023-04-03T20:11:23.358Z,80.28
2023-04-03T20:13:52.558Z,80.27
2023-04-03T20:16:23.689Z,80.27
2023-04-03T20:18:55.938Z,80.15
2023-04-03T20:21:29.660Z,80.12
2023-04-03T20:23:58.655Z,80.10
2023-04-03T20:26:29.345Z,79.69
2023-04-03T20:28:59.974Z,79.54
2023-04-03T20:31:32.270Z,79.15
2023-04-03T20:34:01.147Z,77.98
2023-04-03T20:36:30.373Z,75.79
2023-04-03T20:38:58.294Z,75.06
2023-04-03T20:41:26.464Z,75.24
2023-04-03T20:43:54.325Z,74.62
2023-04-03T20:46:24.441Z,73.63
2023-04-03T20:48:53.548Z,73.92
2023-04-03T20:51:21.319Z,74.02
2023-04-03T20:53:49.470Z,73.78
2023-04-03T20:56:17.264Z,73.01
2023-04-03T20:58:45.763Z,73.11
2023-04-03T21:01:23.292Z,73.08
2023-04-03T21:04:01.972Z,72.14
2023-04-03T21:07:27.555Z,72.13
2023-04-03T21:10:51.698Z,71.38
2023-04-03T21:14:17.433Z,72.09
2023-04-03T21:16:46.425Z,72.28
2023-04-03T21:19:15.427Z,72.47
2023-04-03T21:21:45.462Z,71.53
2023-04-03T21:24:16.622Z,72.34
2023-04-03T21:26:44.650Z,71.47
2023-04-03T21:29:13.610Z,71.11
2023-04-03T21:31:59.599Z,70.94
2023-04-03T21:34:31.957Z,70.95
2023-04-03T21:37:08.950Z,71.17
2023-04-03T21:39:36.790Z,71.49
2023-04-03T21:42:04.634Z,72.02
2023-04-03T21:44:32.359Z,71.99
2023-04-03T21:47:00.685Z,71.60
2023-04-03T21:49:29.119Z,71.68
2023-04-03T21:51:56.913Z,71.08
2023-04-03T21:54:25.196Z,71.41
2023-04-03T21:56:53.045Z,71.03
2023-04-03T21:59:20.955Z,70.67
2023-04-03T22:01:48.814Z,70.40
2023-04-03T22:04:16.680Z,69.98
2023-04-03T22:06:45.214Z,69.31
2023-04-03T22:09:12.998Z,69.15
2023-04-03T22:11:42.529Z,69.89
2023-04-03T22:14:10.626Z,69.50
2023-04-03T22:16:39.927Z,69.21
2023-04-03T22:19:07.707Z,69.45
2023-04-03T22:21:35.973Z,69.58
2023-04-03T22:24:03.836Z,68.79
2023-04-03T22:26:31.583Z,69.15
2023-04-03T22:28:58.938Z,69.37
2023-04-03T22:31:27.671Z,69.78
2023-04-03T22:33:55.561Z,70.00
2023-04-03T22:36:23.178Z,70.26
2023-04-03T22:38:51.182Z,70.13
2023-04-03T22:41:18.768Z,70.39
2023-04-03T22:43:46.677Z,70.72
2023-04-03T22:46:14.629Z,70.99
2023-04-03T22:48:42.930Z,70.51
2023-04-03T22:51:11.767Z,69.77
2023-04-03T22:53:39.692Z,69.85
2023-04-03T22:56:08.440Z,70.30
2023-04-03T22:58:37.025Z,70.45
2023-04-03T23:01:13.448Z,70.35
2023-04-03T23:03:42.201Z,70.47
2023-04-03T23:06:10.629Z,70.31
2023-04-03T23:08:40.085Z,70.58
2023-04-03T23:11:08.831Z,70.87
2023-04-03T23:13:36.825Z,71.43
2023-04-03T23:16:05.206Z,70.74
2023-04-03T23:18:33.101Z,70.24
2023-04-03T23:21:02.981Z,70.83
2023-04-03T23:23:31.408Z,71.07
2023-04-03T23:26:01.704Z,70.76
2023-04-03T23:28:30.806Z,71.50
2023-04-03T23:31:02.399Z,71.81
2023-04-03T23:33:33.595Z,72.55
2023-04-03T23:36:08.003Z,71.92
2023-04-03T23:38:36.391Z,72.37
2023-04-03T23:41:04.097Z,72.56
2023-04-03T23:43:31.974Z,73.18
2023-04-03T23:45:59.769Z,73.35
2023-04-03T23:48:27.383Z,73.62
2023-04-03T23:50:55.094Z,74.20
2023-04-03T23:53:22.673Z,74.82
2023-04-03T23:55:50.467Z,74.86
2023-04-03T23:58:18.169Z,75.03
